Terminal Aerodrome Forecast
Issued by NWS

Home | Current Version | Previous Version | Text Only | Print | Product List | Glossary On
Versions: 1 2 3 4 5 6 7 8 9 10 11 12 13 14 15
000
FTUS44 KLZK 270520
TAFADF
TAF
KADF 270520Z 2706/2806 VRB03KT 5SM BR SCT025 OVC050
     FM271000 15008KT 3SM BR VCTS OVC050CB
      TEMPO 2710/2713 1SM BR
     FM271800 16007KT 5SM -SHRA BR VCTS SCT012 OVC025CB
      TEMPO 2721/2801 2SM -TSRA OVC010CB
     FM280100 17010KT 6SM BR OVC040 PROB30 2801/2806 5SM -SHRA BR
      OVC025
      AMD NOT SKED=

USA.gov is the U.S. government's official web portal to all federal, state and local government web resources and services.